sensor_id;sensor_type;location;lat;lon;timestamp;temperature;humidity
7472;DHT22;3777;48.722;8.110;2023-05-23T00:01:47;18.30;99.90
7472;DHT22;3777;48.722;8.110;2023-05-23T00:04:15;18.30;99.90
7472;DHT22;3777;48.722;8.110;2023-05-23T00:06:43;18.20;99.90
7472;DHT22;3777;48.722;8.110;2023-05-23T00:09:12;18.20;99.90
7472;DHT22;3777;48.722;8.110;2023-05-23T00:11:39;18.20;99.90
7472;DHT22;3777;48.722;8.110;2023-05-23T00:14:10;18.20;99.90
7472;DHT22;3777;48.722;8.110;2023-05-23T00:16:39;18.20;99.90
7472;DHT22;3777;48.722;8.110;2023-05-23T00:19:07;18.10;99.90
7472;DHT22;3777;48.722;8.110;2023-05-23T00:21:34;18.10;99.90
7472;DHT22;3777;48.722;8.110;2023-05-23T00:24:01;18.10;99.90
7472;DHT22;3777;48.722;8.110;2023-05-23T00:26:29;18.10;99.90
7472;DHT22;3777;48.722;8.110;2023-05-23T00:28:56;18.10;99.90
7472;DHT22;3777;48.722;8.110;2023-05-23T00:31:23;18.00;99.90
7472;DHT22;3777;48.722;8.110;2023-05-23T00:33:52;18.00;99.90
7472;DHT22;3777;48.722;8.110;2023-05-23T00:36:19;18.00;99.90
7472;DHT22;3777;48.722;8.110;2023-05-23T00:38:47;18.10;99.90
7472;DHT22;3777;48.722;8.110;2023-05-23T00:41:14;18.00;99.90
7472;DHT22;3777;48.722;8.110;2023-05-23T00:43:43;18.00;99.90
7472;DHT22;3777;48.722;8.110;2023-05-23T00:46:10;18.00;99.90
7472;DHT22;3777;48.722;8.110;2023-05-23T00:48:38;18.00;99.90
7472;DHT22;3777;48.722;8.110;2023-05-23T00:51:06;17.90;99.90
7472;DHT22;3777;48.722;8.110;2023-05-23T00:53:33;17.90;99.90
7472;DHT22;3777;48.722;8.110;2023-05-23T00:56:01;17.90;99.90
7472;DHT22;3777;48.722;8.110;2023-05-23T00:58:29;17.90;99.90
7472;DHT22;3777;48.722;8.110;2023-05-23T01:00:56;17.80;99.90
7472;DHT22;3777;48.722;8.110;2023-05-23T01:03:24;17.70;99.90
7472;DHT22;3777;48.722;8.110;2023-05-23T01:05:53;17.40;99.90
7472;DHT22;3777;48.722;8.110;2023-05-23T01:08:21;17.40;99.90
7472;DHT22;3777;48.722;8.110;2023-05-23T01:10:49;17.50;99.90
7472;DHT22;3777;48.722;8.110;2023-05-23T01:13:21;17.50;99.90
7472;DHT22;3777;48.722;8.110;2023-05-23T01:15:54;17.50;99.90
7472;DHT22;3777;48.722;8.110;2023-05-23T01:18:25;17.60;99.90
7472;DHT22;3777;48.722;8.110;2023-05-23T01:20:58;17.60;99.90
7472;DHT22;3777;48.722;8.110;2023-05-23T01:23:42;17.60;99.90
7472;DHT22;3777;48.722;8.110;2023-05-23T01:26:18;17.60;99.90
7472;DHT22;3777;48.722;8.110;2023-05-23T01:28:55;17.50;99.90
7472;DHT22;3777;48.722;8.110;2023-05-23T01:31:31;17.50;99.90
7472;DHT22;3777;48.722;8.110;2023-05-23T01:34:00;17.50;99.90
7472;DHT22;3777;48.722;8.110;2023-05-23T01:36:28;17.50;99.90
7472;DHT22;3777;48.722;8.110;2023-05-23T01:38:56;17.50;99.90
7472;DHT22;3777;48.722;8.110;2023-05-23T01:41:23;17.50;99.90
7472;DHT22;3777;48.722;8.110;2023-05-23T01:43:53;17.50;99.90
7472;DHT22;3777;48.722;8.110;2023-05-23T01:46:20;17.40;99.90
7472;DHT22;3777;48.722;8.110;2023-05-23T01:48:48;17.40;99.90
7472;DHT22;3777;48.722;8.110;2023-05-23T01:51:16;17.30;99.90
7472;DHT22;3777;48.722;8.110;2023-05-23T01:53:43;17.30;99.90
7472;DHT22;3777;48.722;8.110;2023-05-23T01:56:10;17.30;99.90
7472;DHT22;3777;48.722;8.110;2023-05-23T01:58:37;17.30;99.90
7472;DHT22;3777;48.722;8.110;2023-05-23T02:01:05;17.30;99.90
7472;DHT22;3777;48.722;8.110;2023-05-23T02:03:32;17.30;99.90
7472;DHT22;3777;48.722;8.110;2023-05-23T02:06:00;17.40;99.90
7472;DHT22;3777;48.722;8.110;2023-05-23T02:08:26;17.40;99.90
7472;DHT22;3777;48.722;8.110;2023-05-23T02:10:53;17.40;99.90
7472;DHT22;3777;48.722;8.110;2023-05-23T02:13:20;17.40;99.90
7472;DHT22;3777;48.722;8.110;2023-05-23T02:15:47;17.50;99.90
7472;DHT22;3777;48.722;8.110;2023-05-23T02:18:16;17.50;99.90
7472;DHT22;3777;48.722;8.110;2023-05-23T02:20:43;17.60;99.90
7472;DHT22;3777;48.722;8.110;2023-05-23T02:23:10;17.60;99.90
7472;DHT22;3777;48.722;8.110;2023-05-23T02:25:37;17.60;99.90
7472;DHT22;3777;48.722;8.110;2023-05-23T02:28:04;17.70;99.90
7472;DHT22;3777;48.722;8.110;2023-05-23T02:30:31;17.70;99.90
7472;DHT22;3777;48.722;8.110;2023-05-23T02:32:58;17.70;99.90
7472;DHT22;3777;48.722;8.110;2023-05-23T02:35:27;17.80;99.90
7472;DHT22;3777;48.722;8.110;2023-05-23T02:37:54;17.80;99.90
7472;DHT22;3777;48.722;8.110;2023-05-23T02:40:20;17.80;99.90
7472;DHT22;3777;48.722;8.110;2023-05-23T02:42:47;17.70;99.90
7472;DHT22;3777;48.722;8.110;2023-05-23T02:45:15;17.60;99.90
7472;DHT22;3777;48.722;8.110;2023-05-23T02:47:42;17.60;99.90
7472;DHT22;3777;48.722;8.110;2023-05-23T02:50:10;17.60;99.90
7472;DHT22;3777;48.722;8.110;2023-05-23T02:52:38;17.70;99.90
7472;DHT22;3777;48.722;8.110;2023-05-23T02:55:07;17.70;99.90
7472;DHT22;3777;48.722;8.110;2023-05-23T02:57:34;17.70;99.90
7472;DHT22;3777;48.722;8.110;2023-05-23T03:00:01;17.70;99.90
7472;DHT22;3777;48.722;8.110;2023-05-23T03:02:29;17.80;99.90
7472;DHT22;3777;48.722;8.110;2023-05-23T03:04:56;17.80;99.90
7472;DHT22;3777;48.722;8.110;2023-05-23T03:07:23;17.90;99.90
7472;DHT22;3777;48.722;8.110;2023-05-23T03:09:51;17.90;99.90
7472;DHT22;3777;48.722;8.110;2023-05-23T03:12:18;17.90;99.90
7472;DHT22;3777;48.722;8.110;2023-05-23T03:14:45;17.90;99.90
7472;DHT22;3777;48.722;8.110;2023-05-23T03:17:12;17.90;99.90
7472;DHT22;3777;48.722;8.110;2023-05-23T03:19:39;18.00;99.90
7472;DHT22;3777;48.722;8.110;2023-05-23T03:22:06;18.00;99.90
7472;DHT22;3777;48.722;8.110;2023-05-23T03:24:33;18.10;99.90
7472;DHT22;3777;48.722;8.110;2023-05-23T03:27:02;18.10;99.90
7472;DHT22;3777;48.722;8.110;2023-05-23T03:29:28;18.10;99.90
7472;DHT22;3777;48.722;8.110;2023-05-23T03:31:55;18.10;99.90
7472;DHT22;3777;48.722;8.110;2023-05-23T03:34:22;18.10;99.90
7472;DHT22;3777;48.722;8.110;2023-05-23T03:36:50;18.10;99.90
7472;DHT22;3777;48.722;8.110;2023-05-23T03:39:17;18.10;99.90
7472;DHT22;3777;48.722;8.110;2023-05-23T03:41:44;18.10;99.90
7472;DHT22;3777;48.722;8.110;2023-05-23T03:44:13;18.20;99.90
7472;DHT22;3777;48.722;8.110;2023-05-23T03:46:40;18.10;99.90
7472;DHT22;3777;48.722;8.110;2023-05-23T03:49:07;18.20;99.90
7472;DHT22;3777;48.722;8.110;2023-05-23T03:51:34;18.20;99.90
7472;DHT22;3777;48.722;8.110;2023-05-23T03:54:01;18.10;99.90
7472;DHT22;3777;48.722;8.110;2023-05-23T03:56:28;18.20;99.90
7472;DHT22;3777;48.722;8.110;2023-05-23T03:58:55;18.10;99.90
7472;DHT22;3777;48.722;8.110;2023-05-23T04:01:23;18.10;99.90
7472;DHT22;3777;48.722;8.110;2023-05-23T04:03:50;18.10;99.90
7472;DHT22;3777;48.722;8.110;2023-05-23T04:06:18;18.20;99.90
7472;DHT22;3777;48.722;8.110;2023-05-23T04:08:47;18.20;99.90
7472;DHT22;3777;48.722;8.110;2023-05-23T04:11:14;18.30;99.90
7472;DHT22;3777;48.722;8.110;2023-05-23T04:13:41;18.30;99.90
7472;DHT22;3777;48.722;8.110;2023-05-23T04:16:08;18.30;99.90
7472;DHT22;3777;48.722;8.110;2023-05-23T04:18:36;18.30;99.90
7472;DHT22;3777;48.722;8.110;2023-05-23T04:21:04;18.40;99.90
7472;DHT22;3777;48.722;8.110;2023-05-23T04:23:31;18.40;99.90
7472;DHT22;3777;48.722;8.110;2023-05-23T04:25:58;18.40;99.90
7472;DHT22;3777;48.722;8.110;2023-05-23T04:28:25;18.40;99.90
7472;DHT22;3777;48.722;8.110;2023-05-23T04:30:53;18.40;99.90
7472;DHT22;3777;48.722;8.110;2023-05-23T04:33:20;18.40;99.90
7472;DHT22;3777;48.722;8.110;2023-05-23T04:35:49;18.50;99.90
7472;DHT22;3777;48.722;8.110;2023-05-23T04:38:16;18.50;99.90
7472;DHT22;3777;48.722;8.110;2023-05-23T04:40:43;18.50;99.90
7472;DHT22;3777;48.722;8.110;2023-05-23T04:43:10;18.50;99.90
7472;DHT22;3777;48.722;8.110;2023-05-23T04:45:38;18.50;99.90
7472;DHT22;3777;48.722;8.110;2023-05-23T04:48:06;18.50;99.90
7472;DHT22;3777;48.722;8.110;2023-05-23T04:50:33;18.50;99.90
7472;DHT22;3777;48.722;8.110;2023-05-23T04:53:03;18.60;99.90
7472;DHT22;3777;48.722;8.110;2023-05-23T04:55:30;18.70;99.90
7472;DHT22;3777;48.722;8.110;2023-05-23T04:57:57;18.70;99.90
7472;DHT22;3777;48.722;8.110;2023-05-23T05:00:24;18.80;99.90
7472;DHT22;3777;48.722;8.110;2023-05-23T05:02:51;18.80;99.90
7472;DHT22;3777;48.722;8.110;2023-05-23T05:05:18;18.80;99.90
7472;DHT22;3777;48.722;8.110;2023-05-23T05:07:45;18.80;99.90
7472;DHT22;3777;48.722;8.110;2023-05-23T05:10:14;18.80;99.90
7472;DHT22;3777;48.722;8.110;2023-05-23T05:12:42;18.90;99.90
7472;DHT22;3777;48.722;8.110;2023-05-23T05:15:10;18.90;99.90
7472;DHT22;3777;48.722;8.110;2023-05-23T05:17:37;19.00;99.90
7472;DHT22;3777;48.722;8.110;2023-05-23T05:20:05;19.00;99.90
7472;DHT22;3777;48.722;8.110;2023-05-23T05:22:33;19.00;99.90
7472;DHT22;3777;48.722;8.110;2023-05-23T05:25:01;19.10;99.90
7472;DHT22;3777;48.722;8.110;2023-05-23T05:27:29;19.10;99.90
7472;DHT22;3777;48.722;8.110;2023-05-23T05:29:56;19.20;99.90
7472;DHT22;3777;48.722;8.110;2023-05-23T05:32:28;19.30;99.90
7472;DHT22;3777;48.722;8.110;2023-05-23T05:34:58;19.30;99.90
7472;DHT22;3777;48.722;8.110;2023-05-23T05:37:25;19.40;99.90
7472;DHT22;3777;48.722;8.110;2023-05-23T05:39:52;19.50;99.90
7472;DHT22;3777;48.722;8.110;2023-05-23T05:42:19;19.60;99.90
7472;DHT22;3777;48.722;8.110;2023-05-23T05:44:48;19.60;99.90
7472;DHT22;3777;48.722;8.110;2023-05-23T05:47:15;19.70;99.90
7472;DHT22;3777;48.722;8.110;2023-05-23T05:49:42;19.90;99.90
7472;DHT22;3777;48.722;8.110;2023-05-23T05:52:09;20.00;99.90
7472;DHT22;3777;48.722;8.110;2023-05-23T05:54:36;20.10;99.90
7472;DHT22;3777;48.722;8.110;2023-05-23T05:57:03;20.10;99.90
7472;DHT22;3777;48.722;8.110;2023-05-23T05:59:30;20.10;99.90
7472;DHT22;3777;48.722;8.110;2023-05-23T06:01:59;20.20;99.90
7472;DHT22;3777;48.722;8.110;2023-05-23T06:04:26;20.20;99.90
7472;DHT22;3777;48.722;8.110;2023-05-23T06:06:53;20.20;99.90
7472;DHT22;3777;48.722;8.110;2023-05-23T06:09:20;20.30;99.90
7472;DHT22;3777;48.722;8.110;2023-05-23T06:11:47;20.30;99.90
7472;DHT22;3777;48.722;8.110;2023-05-23T06:14:14;20.40;99.90
7472;DHT22;3777;48.722;8.110;2023-05-23T06:16:41;20.50;99.90
7472;DHT22;3777;48.722;8.110;2023-05-23T06:19:09;20.60;99.90
7472;DHT22;3777;48.722;8.110;2023-05-23T06:21:36;20.80;99.90
7472;DHT22;3777;48.722;8.110;2023-05-23T06:24:03;20.90;99.90
7472;DHT22;3777;48.722;8.110;2023-05-23T06:26:30;20.90;99.90
7472;DHT22;3777;48.722;8.110;2023-05-23T06:28:58;20.90;99.90
7472;DHT22;3777;48.722;8.110;2023-05-23T06:31:25;20.90;99.90
7472;DHT22;3777;48.722;8.110;2023-05-23T06:33:51;21.00;99.90
7472;DHT22;3777;48.722;8.110;2023-05-23T06:36:20;21.00;99.90
7472;DHT22;3777;48.722;8.110;2023-05-23T06:38:47;21.10;99.90
7472;DHT22;3777;48.722;8.110;2023-05-23T06:41:14;21.20;99.90
7472;DHT22;3777;48.722;8.110;2023-05-23T06:43:41;21.20;99.90
7472;DHT22;3777;48.722;8.110;2023-05-23T06:46:08;21.30;99.90
7472;DHT22;3777;48.722;8.110;2023-05-23T06:48:34;21.50;99.90
7472;DHT22;3777;48.722;8.110;2023-05-23T06:51:01;21.60;99.90
7472;DHT22;3777;48.722;8.110;2023-05-23T06:53:30;21.70;99.90
7472;DHT22;3777;48.722;8.110;2023-05-23T06:55:57;21.50;99.90
7472;DHT22;3777;48.722;8.110;2023-05-23T06:58:24;21.30;99.90
7472;DHT22;3777;48.722;8.110;2023-05-23T07:00:51;21.30;99.90
7472;DHT22;3777;48.722;8.110;2023-05-23T07:03:18;21.20;99.90
7472;DHT22;3777;48.722;8.110;2023-05-23T07:05:45;21.10;99.90
7472;DHT22;3777;48.722;8.110;2023-05-23T07:08:12;20.90;99.90
7472;DHT22;3777;48.722;8.110;2023-05-23T07:10:40;20.90;99.90
7472;DHT22;3777;48.722;8.110;2023-05-23T07:13:07;20.80;99.90
7472;DHT22;3777;48.722;8.110;2023-05-23T07:15:34;20.80;99.90
7472;DHT22;3777;48.722;8.110;2023-05-23T07:18:01;20.70;99.90
7472;DHT22;3777;48.722;8.110;2023-05-23T07:20:28;20.70;99.90
7472;DHT22;3777;48.722;8.110;2023-05-23T07:22:55;21.00;99.90
7472;DHT22;3777;48.722;8.110;2023-05-23T07:25:22;21.50;99.90
7472;DHT22;3777;48.722;8.110;2023-05-23T07:27:51;21.80;99.90
7472;DHT22;3777;48.722;8.110;2023-05-23T07:30:19;21.90;99.90
7472;DHT22;3777;48.722;8.110;2023-05-23T07:32:47;21.90;99.90
7472;DHT22;3777;48.722;8.110;2023-05-23T07:35:14;22.20;99.90
7472;DHT22;3777;48.722;8.110;2023-05-23T07:37:41;22.40;99.90
7472;DHT22;3777;48.722;8.110;2023-05-23T07:40:08;22.40;99.90
7472;DHT22;3777;48.722;8.110;2023-05-23T07:42:36;22.60;99.90
7472;DHT22;3777;48.722;8.110;2023-05-23T07:45:05;22.60;99.90
7472;DHT22;3777;48.722;8.110;2023-05-23T07:47:32;22.50;99.90
7472;DHT22;3777;48.722;8.110;2023-05-23T07:49:59;22.50;99.90
7472;DHT22;3777;48.722;8.110;2023-05-23T07:52:27;22.80;99.90
7472;DHT22;3777;48.722;8.110;2023-05-23T07:54:54;22.90;99.90
7472;DHT22;3777;48.722;8.110;2023-05-23T07:57:21;22.70;99.90
7472;DHT22;3777;48.722;8.110;2023-05-23T07:59:49;22.90;99.90
7472;DHT22;3777;48.722;8.110;2023-05-23T08:02:18;23.00;99.90
7472;DHT22;3777;48.722;8.110;2023-05-23T08:04:46;23.00;99.90
7472;DHT22;3777;48.722;8.110;2023-05-23T08:07:13;22.70;99.90
7472;DHT22;3777;48.722;8.110;2023-05-23T08:09:40;22.60;99.90
7472;DHT22;3777;48.722;8.110;2023-05-23T08:12:08;22.40;99.90
7472;DHT22;3777;48.722;8.110;2023-05-23T08:14:38;22.20;99.90
7472;DHT22;3777;48.722;8.110;2023-05-23T08:17:05;22.00;99.90
7472;DHT22;3777;48.722;8.110;2023-05-23T08:19:33;22.00;99.90
7472;DHT22;3777;48.722;8.110;2023-05-23T08:22:00;22.10;99.90
7472;DHT22;3777;48.722;8.110;2023-05-23T08:24:32;21.90;99.90
7472;DHT22;3777;48.722;8.110;2023-05-23T08:26:59;21.30;99.90
7472;DHT22;3777;48.722;8.110;2023-05-23T08:29:26;21.00;99.90
7472;DHT22;3777;48.722;8.110;2023-05-23T08:31:53;20.70;99.90
7472;DHT22;3777;48.722;8.110;2023-05-23T08:34:20;20.60;99.90
7472;DHT22;3777;48.722;8.110;2023-05-23T08:36:48;20.50;99.90
7472;DHT22;3777;48.722;8.110;2023-05-23T08:39:15;20.40;99.90
7472;DHT22;3777;48.722;8.110;2023-05-23T08:41:42;20.30;99.90
7472;DHT22;3777;48.722;8.110;2023-05-23T08:44:10;20.30;99.90
7472;DHT22;3777;48.722;8.110;2023-05-23T08:46:39;20.30;99.90
7472;DHT22;3777;48.722;8.110;2023-05-23T08:49:08;20.40;99.90
7472;DHT22;3777;48.722;8.110;2023-05-23T08:51:37;20.50;99.90
7472;DHT22;3777;48.722;8.110;2023-05-23T08:54:08;20.60;99.90
7472;DHT22;3777;48.722;8.110;2023-05-23T08:56:37;20.60;99.90
7472;DHT22;3777;48.722;8.110;2023-05-23T08:59:06;20.60;99.90
7472;DHT22;3777;48.722;8.110;2023-05-23T09:01:34;20.50;99.90
7472;DHT22;3777;48.722;8.110;2023-05-23T09:04:01;20.50;99.90
7472;DHT22;3777;48.722;8.110;2023-05-23T09:06:29;20.30;99.90
7472;DHT22;3777;48.722;8.110;2023-05-23T09:08:57;20.40;99.90
7472;DHT22;3777;48.722;8.110;2023-05-23T09:11:25;20.30;99.90
7472;DHT22;3777;48.722;8.110;2023-05-23T09:13:52;20.40;99.90
7472;DHT22;3777;48.722;8.110;2023-05-23T09:16:20;20.50;99.90
7472;DHT22;3777;48.722;8.110;2023-05-23T09:18:47;20.50;99.90
7472;DHT22;3777;48.722;8.110;2023-05-23T09:21:14;20.50;99.90
7472;DHT22;3777;48.722;8.110;2023-05-23T09:23:41;20.40;99.90
7472;DHT22;3777;48.722;8.110;2023-05-23T09:26:10;20.50;99.90
7472;DHT22;3777;48.722;8.110;2023-05-23T09:28:42;20.40;99.90
7472;DHT22;3777;48.722;8.110;2023-05-23T09:31:09;20.50;99.90
7472;DHT22;3777;48.722;8.110;2023-05-23T09:33:38;20.50;99.90
7472;DHT22;3777;48.722;8.110;2023-05-23T09:36:06;20.50;99.90
7472;DHT22;3777;48.722;8.110;2023-05-23T09:38:37;20.40;99.90
7472;DHT22;3777;48.722;8.110;2023-05-23T09:41:04;20.40;99.90
7472;DHT22;3777;48.722;8.110;2023-05-23T09:43:31;20.40;99.90
7472;DHT22;3777;48.722;8.110;2023-05-23T09:46:06;20.40;99.90
7472;DHT22;3777;48.722;8.110;2023-05-23T09:48:33;20.30;99.90
7472;DHT22;3777;48.722;8.110;2023-05-23T09:51:03;20.30;99.90
7472;DHT22;3777;48.722;8.110;2023-05-23T09:53:30;20.30;99.90
7472;DHT22;3777;48.722;8.110;2023-05-23T09:55:58;20.20;99.90
7472;DHT22;3777;48.722;8.110;2023-05-23T09:58:27;20.30;99.90
7472;DHT22;3777;48.722;8.110;2023-05-23T10:00:55;20.30;99.90
7472;DHT22;3777;48.722;8.110;2023-05-23T10:03:30;20.40;99.90
7472;DHT22;3777;48.722;8.110;2023-05-23T10:06:03;20.50;99.90
7472;DHT22;3777;48.722;8.110;2023-05-23T10:08:35;20.70;99.90
7472;DHT22;3777;48.722;8.110;2023-05-23T10:14:16;20.90;99.90
7472;DHT22;3777;48.722;8.110;2023-05-23T10:16:52;21.00;99.90
7472;DHT22;3777;48.722;8.110;2023-05-23T10:19:24;21.00;99.90
7472;DHT22;3777;48.722;8.110;2023-05-23T10:21:57;21.30;99.90
7472;DHT22;3777;48.722;8.110;2023-05-23T10:24:25;21.40;99.90
7472;DHT22;3777;48.722;8.110;2023-05-23T10:26:53;21.50;99.90
7472;DHT22;3777;48.722;8.110;2023-05-23T10:29:21;21.50;99.90
7472;DHT22;3777;48.722;8.110;2023-05-23T10:31:49;21.70;99.90
7472;DHT22;3777;48.722;8.110;2023-05-23T10:34:24;21.90;99.90
7472;DHT22;3777;48.722;8.110;2023-05-23T10:36:59;22.00;99.90
7472;DHT22;3777;48.722;8.110;2023-05-23T10:39:40;22.20;99.90
7472;DHT22;3777;48.722;8.110;2023-05-23T10:42:12;22.40;99.90
7472;DHT22;3777;48.722;8.110;2023-05-23T10:44:41;22.30;99.90
7472;DHT22;3777;48.722;8.110;2023-05-23T10:47:08;22.20;99.90
7472;DHT22;3777;48.722;8.110;2023-05-23T10:49:40;22.40;99.90
7472;DHT22;3777;48.722;8.110;2023-05-23T10:52:08;22.40;99.90
7472;DHT22;3777;48.722;8.110;2023-05-23T10:54:35;22.40;99.90
7472;DHT22;3777;48.722;8.110;2023-05-23T10:57:03;22.40;99.90
7472;DHT22;3777;48.722;8.110;2023-05-23T10:59:30;22.50;99.90
7472;DHT22;3777;48.722;8.110;2023-05-23T11:01:59;22.50;99.90
7472;DHT22;3777;48.722;8.110;2023-05-23T11:04:27;22.50;99.90
7472;DHT22;3777;48.722;8.110;2023-05-23T11:06:57;22.60;99.90
7472;DHT22;3777;48.722;8.110;2023-05-23T11:09:24;22.80;99.90
7472;DHT22;3777;48.722;8.110;2023-05-23T11:11:52;23.00;99.90
7472;DHT22;3777;48.722;8.110;2023-05-23T11:14:21;23.30;99.90
7472;DHT22;3777;48.722;8.110;2023-05-23T11:16:57;23.60;99.90
7472;DHT22;3777;48.722;8.110;2023-05-23T11:19:25;23.50;99.90
7472;DHT22;3777;48.722;8.110;2023-05-23T11:21:56;23.30;99.90
7472;DHT22;3777;48.722;8.110;2023-05-23T11:24:24;23.50;99.90
7472;DHT22;3777;48.722;8.110;2023-05-23T11:27:11;23.40;99.90
7472;DHT22;3777;48.722;8.110;2023-05-23T11:29:39;23.40;99.90
7472;DHT22;3777;48.722;8.110;2023-05-23T11:32:09;23.40;99.90
7472;DHT22;3777;48.722;8.110;2023-05-23T11:34:37;23.40;99.90
7472;DHT22;3777;48.722;8.110;2023-05-23T11:37:05;23.60;99.90
7472;DHT22;3777;48.722;8.110;2023-05-23T11:39:33;23.70;99.90
7472;DHT22;3777;48.722;8.110;2023-05-23T11:42:01;23.80;99.90
7472;DHT22;3777;48.722;8.110;2023-05-23T11:44:28;23.80;99.90
7472;DHT22;3777;48.722;8.110;2023-05-23T11:46:59;23.60;99.90
7472;DHT22;3777;48.722;8.110;2023-05-23T11:49:28;23.60;99.90
7472;DHT22;3777;48.722;8.110;2023-05-23T11:51:55;23.70;99.90
7472;DHT22;3777;48.722;8.110;2023-05-23T11:54:23;23.80;99.90
7472;DHT22;3777;48.722;8.110;2023-05-23T11:56:51;23.90;99.90
7472;DHT22;3777;48.722;8.110;2023-05-23T11:59:18;23.90;99.90
7472;DHT22;3777;48.722;8.110;2023-05-23T12:01:45;23.90;99.90
7472;DHT22;3777;48.722;8.110;2023-05-23T12:04:12;23.80;99.90
7472;DHT22;3777;48.722;8.110;2023-05-23T12:06:40;23.90;99.90
7472;DHT22;3777;48.722;8.110;2023-05-23T12:09:09;23.80;99.90
7472;DHT22;3777;48.722;8.110;2023-05-23T12:11:39;23.90;99.90
7472;DHT22;3777;48.722;8.110;2023-05-23T12:14:06;24.00;99.90
7472;DHT22;3777;48.722;8.110;2023-05-23T12:16:33;24.00;99.90
7472;DHT22;3777;48.722;8.110;2023-05-23T12:19:02;24.30;99.90
7472;DHT22;3777;48.722;8.110;2023-05-23T12:21:40;24.60;99.90
7472;DHT22;3777;48.722;8.110;2023-05-23T12:24:15;24.90;99.90
7472;DHT22;3777;48.722;8.110;2023-05-23T12:26:51;25.00;99.90
7472;DHT22;3777;48.722;8.110;2023-05-23T12:29:19;24.50;99.90
7472;DHT22;3777;48.722;8.110;2023-05-23T12:31:50;24.50;99.90
7472;DHT22;3777;48.722;8.110;2023-05-23T12:34:18;24.50;99.90
7472;DHT22;3777;48.722;8.110;2023-05-23T12:36:45;24.40;99.90
7472;DHT22;3777;48.722;8.110;2023-05-23T12:39:14;24.50;99.90
7472;DHT22;3777;48.722;8.110;2023-05-23T12:41:41;24.50;99.90
7472;DHT22;3777;48.722;8.110;2023-05-23T12:44:14;24.60;99.90
7472;DHT22;3777;48.722;8.110;2023-05-23T12:46:42;24.70;99.90
7472;DHT22;3777;48.722;8.110;2023-05-23T12:49:10;24.60;99.90
7472;DHT22;3777;48.722;8.110;2023-05-23T12:51:37;24.40;99.90
7472;DHT22;3777;48.722;8.110;2023-05-23T12:54:04;24.50;99.90
7472;DHT22;3777;48.722;8.110;2023-05-23T12:56:31;24.50;99.90
7472;DHT22;3777;48.722;8.110;2023-05-23T12:58:58;24.40;99.90
7472;DHT22;3777;48.722;8.110;2023-05-23T13:01:28;24.30;99.90
7472;DHT22;3777;48.722;8.110;2023-05-23T13:03:55;24.20;99.90
7472;DHT22;3777;48.722;8.110;2023-05-23T13:06:22;24.00;99.90
7472;DHT22;3777;48.722;8.110;2023-05-23T13:08:49;24.00;99.90
7472;DHT22;3777;48.722;8.110;2023-05-23T13:11:17;24.00;99.90
7472;DHT22;3777;48.722;8.110;2023-05-23T13:13:44;24.10;99.90
7472;DHT22;3777;48.722;8.110;2023-05-23T13:16:11;24.20;99.90
7472;DHT22;3777;48.722;8.110;2023-05-23T13:18:40;24.30;99.90
7472;DHT22;3777;48.722;8.110;2023-05-23T13:21:07;24.50;99.90
7472;DHT22;3777;48.722;8.110;2023-05-23T13:23:34;24.50;99.90
7472;DHT22;3777;48.722;8.110;2023-05-23T13:26:04;24.50;99.90
7472;DHT22;3777;48.722;8.110;2023-05-23T13:28:31;24.50;99.90
7472;DHT22;3777;48.722;8.110;2023-05-23T13:30:58;24.60;99.90
7472;DHT22;3777;48.722;8.110;2023-05-23T13:33:26;24.80;99.90
7472;DHT22;3777;48.722;8.110;2023-05-23T13:35:54;24.80;99.90
7472;DHT22;3777;48.722;8.110;2023-05-23T13:38:22;24.80;99.90
7472;DHT22;3777;48.722;8.110;2023-05-23T13:40:49;24.90;99.90
7472;DHT22;3777;48.722;8.110;2023-05-23T13:43:17;25.00;99.90
7472;DHT22;3777;48.722;8.110;2023-05-23T13:45:44;25.00;99.90
7472;DHT22;3777;48.722;8.110;2023-05-23T13:48:11;24.90;99.90
7472;DHT22;3777;48.722;8.110;2023-05-23T13:50:38;24.70;99.90
7472;DHT22;3777;48.722;8.110;2023-05-23T13:53:07;24.60;99.90
7472;DHT22;3777;48.722;8.110;2023-05-23T13:55:39;24.50;99.90
7472;DHT22;3777;48.722;8.110;2023-05-23T13:58:06;24.50;99.90
7472;DHT22;3777;48.722;8.110;2023-05-23T14:00:33;24.50;99.90
7472;DHT22;3777;48.722;8.110;2023-05-23T14:03:00;24.50;99.90
7472;DHT22;3777;48.722;8.110;2023-05-23T14:05:27;24.50;99.90
7472;DHT22;3777;48.722;8.110;2023-05-23T14:07:54;24.70;99.90
7472;DHT22;3777;48.722;8.110;2023-05-23T14:10:22;25.10;99.90
7472;DHT22;3777;48.722;8.110;2023-05-23T14:12:49;25.30;99.90
7472;DHT22;3777;48.722;8.110;2023-05-23T14:15:16;25.30;99.90
7472;DHT22;3777;48.722;8.110;2023-05-23T14:17:43;25.30;99.90
7472;DHT22;3777;48.722;8.110;2023-05-23T14:20:11;25.40;99.90
7472;DHT22;3777;48.722;8.110;2023-05-23T14:22:38;25.40;99.90
7472;DHT22;3777;48.722;8.110;2023-05-23T14:25:05;25.20;99.90
7472;DHT22;3777;48.722;8.110;2023-05-23T14:27:34;25.20;99.90
7472;DHT22;3777;48.722;8.110;2023-05-23T14:30:01;25.20;99.90
7472;DHT22;3777;48.722;8.110;2023-05-23T14:32:28;25.00;99.90
7472;DHT22;3777;48.722;8.110;2023-05-23T14:34:57;24.90;99.90
7472;DHT22;3777;48.722;8.110;2023-05-23T14:37:24;24.70;99.90
7472;DHT22;3777;48.722;8.110;2023-05-23T14:39:51;24.30;99.90
7472;DHT22;3777;48.722;8.110;2023-05-23T14:42:18;24.20;99.90
7472;DHT22;3777;48.722;8.110;2023-05-23T14:44:46;24.00;99.90
7472;DHT22;3777;48.722;8.110;2023-05-23T14:47:13;23.90;99.90
7472;DHT22;3777;48.722;8.110;2023-05-23T14:49:40;23.90;99.90
7472;DHT22;3777;48.722;8.110;2023-05-23T14:52:07;23.90;99.90
7472;DHT22;3777;48.722;8.110;2023-05-23T14:54:34;23.90;99.90
7472;DHT22;3777;48.722;8.110;2023-05-23T14:57:01;23.90;99.90
7472;DHT22;3777;48.722;8.110;2023-05-23T14:59:29;23.80;99.90
7472;DHT22;3777;48.722;8.110;2023-05-23T15:01:57;23.70;99.90
7472;DHT22;3777;48.722;8.110;2023-05-23T15:04:24;23.80;99.90
7472;DHT22;3777;48.722;8.110;2023-05-23T15:06:51;23.80;99.90
7472;DHT22;3777;48.722;8.110;2023-05-23T15:09:18;23.70;99.90
7472;DHT22;3777;48.722;8.110;2023-05-23T15:11:45;23.70;99.90
7472;DHT22;3777;48.722;8.110;2023-05-23T15:14:14;23.80;99.90
7472;DHT22;3777;48.722;8.110;2023-05-23T15:16:41;23.60;99.90
7472;DHT22;3777;48.722;8.110;2023-05-23T15:19:10;23.60;99.90
7472;DHT22;3777;48.722;8.110;2023-05-23T15:21:37;23.50;99.90
7472;DHT22;3777;48.722;8.110;2023-05-23T15:24:05;23.40;99.90
7472;DHT22;3777;48.722;8.110;2023-05-23T15:26:34;23.30;99.90
7472;DHT22;3777;48.722;8.110;2023-05-23T15:29:00;22.90;99.90
7472;DHT22;3777;48.722;8.110;2023-05-23T15:31:27;22.80;99.90
7472;DHT22;3777;48.722;8.110;2023-05-23T15:33:54;22.80;99.90
7472;DHT22;3777;48.722;8.110;2023-05-23T15:36:23;22.80;99.90
7472;DHT22;3777;48.722;8.110;2023-05-23T15:38:50;22.90;99.90
7472;DHT22;3777;48.722;8.110;2023-05-23T15:41:17;23.00;99.90
7472;DHT22;3777;48.722;8.110;2023-05-23T15:43:43;23.00;99.90
7472;DHT22;3777;48.722;8.110;2023-05-23T15:46:10;23.00;99.90
7472;DHT22;3777;48.722;8.110;2023-05-23T15:48:37;23.00;99.90
7472;DHT22;3777;48.722;8.110;2023-05-23T15:51:04;22.90;99.90
7472;DHT22;3777;48.722;8.110;2023-05-23T15:53:33;22.90;99.90
7472;DHT22;3777;48.722;8.110;2023-05-23T15:56:00;22.70;99.90
7472;DHT22;3777;48.722;8.110;2023-05-23T15:58:27;22.50;99.90
7472;DHT22;3777;48.722;8.110;2023-05-23T16:00:54;22.50;99.90
7472;DHT22;3777;48.722;8.110;2023-05-23T16:03:20;22.30;99.90
7472;DHT22;3777;48.722;8.110;2023-05-23T16:05:48;22.20;99.90
7472;DHT22;3777;48.722;8.110;2023-05-23T16:08:15;22.00;99.90
7472;DHT22;3777;48.722;8.110;2023-05-23T16:10:43;22.00;99.90